createdAt,value
2023-01-19T23:00:51.468Z,1009.57
2023-01-19T23:01:50.365Z,1009.51
2023-01-19T23:02:50.243Z,1009.51
2023-01-19T23:03:50.199Z,1009.52
2023-01-19T23:04:50.175Z,1009.54
2023-01-19T23:05:50.214Z,1009.52
2023-01-19T23:06:50.219Z,1009.51
2023-01-19T23:07:50.147Z,1009.50
2023-01-19T23:08:50.150Z,1009.53
2023-01-19T23:09:50.126Z,1009.54
2023-01-19T23:10:50.093Z,1009.60
2023-01-19T23:11:50.363Z,1009.58
2023-01-19T23:12:51.090Z,1009.62
2023-01-19T23:13:50.094Z,1009.57
2023-01-19T23:14:50.056Z,1009.58
2023-01-19T23:15:50.077Z,1009.62
2023-01-19T23:16:50.026Z,1009.56
2023-01-19T23:17:50.039Z,1009.61
2023-01-19T23:18:50.018Z,1009.57
2023-01-19T23:19:49.997Z,1009.59
2023-01-19T23:20:49.962Z,1009.63
2023-01-19T23:21:50.023Z,1009.58
2023-01-19T23:22:49.948Z,1009.59
2023-01-19T23:23:49.949Z,1009.59
2023-01-19T23:24:49.929Z,1009.56
2023-01-19T23:25:49.906Z,1009.60
2023-01-19T23:26:49.893Z,1009.63
2023-01-19T23:27:49.877Z,1009.61
2023-01-19T23:28:49.923Z,1009.62
2023-01-19T23:29:49.884Z,1009.59
2023-01-19T23:30:51.076Z,1009.65
2023-01-19T23:31:50.116Z,1009.65
2023-01-19T23:32:50.857Z,1009.62
2023-01-19T23:33:49.804Z,1009.64
2023-01-19T23:34:49.860Z,1009.61
2023-01-19T23:35:49.777Z,1009.60
2023-01-19T23:36:49.757Z,1009.63
2023-01-19T23:37:49.741Z,1009.63
2023-01-19T23:38:49.755Z,1009.64
2023-01-19T23:39:49.715Z,1009.64
2023-01-19T23:40:49.772Z,1009.63
2023-01-19T23:41:49.911Z,1009.63
2023-01-19T23:42:49.766Z,1009.61
2023-01-19T23:43:49.675Z,1009.65
2023-01-19T23:44:49.660Z,1009.66
2023-01-19T23:45:49.670Z,1009.66
2023-01-19T23:46:49.662Z,1009.66
2023-01-19T23:47:49.633Z,1009.69
2023-01-19T23:48:49.613Z,1009.63
2023-01-19T23:49:49.600Z,1009.68
2023-01-19T23:50:49.579Z,1009.68
2023-01-19T23:51:49.590Z,1009.74
2023-01-19T23:52:49.585Z,1009.66
2023-01-19T23:53:49.555Z,1009.67
2023-01-19T23:54:49.534Z,1009.68
2023-01-19T23:55:49.544Z,1009.70
2023-01-19T23:56:49.501Z,1009.73
2023-01-19T23:57:49.503Z,1009.70
2023-01-19T23:58:49.499Z,1009.70
2023-01-19T23:59:49.460Z,1009.71
